sensor_id;sensor_type;location;lat;lon;timestamp;pressure;altitude;pressure_sealevel;temperature;humidity
54262;BME280;40174;52.364;6.452;2023-10-31T00:01:04;99080.75;;;11.49;100.00
54262;BME280;40174;52.364;6.452;2023-10-31T00:03:31;99077.31;;;11.48;100.00
54262;BME280;40174;52.364;6.452;2023-10-31T00:05:59;99074.66;;;11.48;100.00
54262;BME280;40174;52.364;6.452;2023-10-31T00:08:25;99077.75;;;11.52;100.00
54262;BME280;40174;52.364;6.452;2023-10-31T00:10:52;99076.28;;;11.49;100.00
54262;BME280;40174;52.364;6.452;2023-10-31T00:13:18;99074.31;;;11.51;100.00
54262;BME280;40174;52.364;6.452;2023-10-31T00:15:45;99078.59;;;11.52;100.00
54262;BME280;40174;52.364;6.452;2023-10-31T00:18:12;99071.66;;;11.51;100.00
54262;BME280;40174;52.364;6.452;2023-10-31T00:20:38;99070.84;;;11.51;100.00
54262;BME280;40174;52.364;6.452;2023-10-31T00:23:06;99072.00;;;11.48;100.00
54262;BME280;40174;52.364;6.452;2023-10-31T00:25:34;99070.34;;;11.47;100.00
54262;BME280;40174;52.364;6.452;2023-10-31T00:28:00;99064.41;;;11.45;100.00
54262;BME280;40174;52.364;6.452;2023-10-31T00:30:27;99060.28;;;11.42;100.00
54262;BME280;40174;52.364;6.452;2023-10-31T00:32:53;99067.69;;;11.47;100.00
54262;BME280;40174;52.364;6.452;2023-10-31T00:35:20;99065.06;;;11.47;100.00
54262;BME280;40174;52.364;6.452;2023-10-31T00:37:47;99066.53;;;11.50;100.00
54262;BME280;40174;52.364;6.452;2023-10-31T00:40:15;99072.81;;;11.49;100.00
54262;BME280;40174;52.364;6.452;2023-10-31T00:42:43;99081.09;;;11.45;100.00
54262;BME280;40174;52.364;6.452;2023-10-31T00:45:12;99093.25;;;11.23;100.00
54262;BME280;40174;52.364;6.452;2023-10-31T00:47:39;99109.47;;;11.12;100.00
54262;BME280;40174;52.364;6.452;2023-10-31T00:50:07;99115.75;;;11.03;100.00
54262;BME280;40174;52.364;6.452;2023-10-31T00:52:34;99110.84;;;10.84;100.00
54262;BME280;40174;52.364;6.452;2023-10-31T00:55:01;99126.19;;;10.80;100.00
54262;BME280;40174;52.364;6.452;2023-10-31T00:57:29;99136.13;;;10.70;100.00
54262;BME280;40174;52.364;6.452;2023-10-31T00:59:56;99139.09;;;10.58;100.00
54262;BME280;40174;52.364;6.452;2023-10-31T01:02:23;99129.81;;;10.46;100.00
54262;BME280;40174;52.364;6.452;2023-10-31T01:04:49;99140.38;;;10.30;100.00
54262;BME280;40174;52.364;6.452;2023-10-31T01:07:16;99152.69;;;10.21;100.00
54262;BME280;40174;52.364;6.452;2023-10-31T01:09:43;99156.47;;;10.18;100.00
54262;BME280;40174;52.364;6.452;2023-10-31T01:12:10;99162.25;;;10.14;100.00
54262;BME280;40174;52.364;6.452;2023-10-31T01:14:40;99164.88;;;10.14;100.00
54262;BME280;40174;52.364;6.452;2023-10-31T01:17:06;99166.81;;;10.04;100.00
54262;BME280;40174;52.364;6.452;2023-10-31T01:19:33;99191.06;;;9.99;100.00
54262;BME280;40174;52.364;6.452;2023-10-31T01:22:00;99190.91;;;10.01;100.00
54262;BME280;40174;52.364;6.452;2023-10-31T01:24:27;99200.75;;;9.90;100.00
54262;BME280;40174;52.364;6.452;2023-10-31T01:26:53;99202.03;;;9.86;100.00
54262;BME280;40174;52.364;6.452;2023-10-31T01:29:20;99207.41;;;9.68;100.00
54262;BME280;40174;52.364;6.452;2023-10-31T01:31:48;99212.59;;;9.78;100.00
54262;BME280;40174;52.364;6.452;2023-10-31T01:34:15;99224.09;;;9.77;100.00
54262;BME280;40174;52.364;6.452;2023-10-31T01:36:42;99228.03;;;9.73;100.00
54262;BME280;40174;52.364;6.452;2023-10-31T01:39:09;99239.19;;;9.58;100.00
54262;BME280;40174;52.364;6.452;2023-10-31T01:41:36;99235.03;;;9.56;100.00
54262;BME280;40174;52.364;6.452;2023-10-31T01:44:03;99240.63;;;9.53;100.00
54262;BME280;40174;52.364;6.452;2023-10-31T01:46:30;99253.38;;;9.57;100.00
54262;BME280;40174;52.364;6.452;2023-10-31T01:48:58;99246.94;;;9.60;100.00
54262;BME280;40174;52.364;6.452;2023-10-31T01:51:25;99256.97;;;9.56;100.00
54262;BME280;40174;52.364;6.452;2023-10-31T01:53:52;99272.78;;;9.56;100.00
54262;BME280;40174;52.364;6.452;2023-10-31T01:56:20;99269.00;;;9.59;100.00
54262;BME280;40174;52.364;6.452;2023-10-31T01:58:47;99267.06;;;9.61;100.00
54262;BME280;40174;52.364;6.452;2023-10-31T02:01:15;99278.06;;;9.56;100.00
54262;BME280;40174;52.364;6.452;2023-10-31T02:03:41;99275.88;;;9.52;100.00
54262;BME280;40174;52.364;6.452;2023-10-31T02:06:10;99282.06;;;9.61;100.00
54262;BME280;40174;52.364;6.452;2023-10-31T02:08:36;99282.66;;;9.54;100.00
54262;BME280;40174;52.364;6.452;2023-10-31T02:11:03;99282.97;;;9.51;100.00
54262;BME280;40174;52.364;6.452;2023-10-31T02:13:31;99288.75;;;9.55;100.00
54262;BME280;40174;52.364;6.452;2023-10-31T02:15:58;99298.19;;;9.57;100.00
54262;BME280;40174;52.364;6.452;2023-10-31T02:18:24;99300.00;;;9.57;100.00
54262;BME280;40174;52.364;6.452;2023-10-31T02:20:51;99294.22;;;9.53;100.00
54262;BME280;40174;52.364;6.452;2023-10-31T02:23:19;99309.84;;;9.55;100.00
54262;BME280;40174;52.364;6.452;2023-10-31T02:25:46;99317.34;;;9.60;100.00
54262;BME280;40174;52.364;6.452;2023-10-31T02:28:12;99310.25;;;9.60;100.00
54262;BME280;40174;52.364;6.452;2023-10-31T02:30:40;99321.97;;;9.66;100.00
54262;BME280;40174;52.364;6.452;2023-10-31T02:33:06;99317.50;;;9.58;100.00
54262;BME280;40174;52.364;6.452;2023-10-31T02:35:33;99323.59;;;9.58;100.00
54262;BME280;40174;52.364;6.452;2023-10-31T02:38:00;99317.34;;;9.60;100.00
54262;BME280;40174;52.364;6.452;2023-10-31T02:40:28;99326.06;;;9.60;100.00
54262;BME280;40174;52.364;6.452;2023-10-31T02:42:54;99331.81;;;9.55;100.00
54262;BME280;40174;52.364;6.452;2023-10-31T02:45:21;99338.59;;;9.58;100.00
54262;BME280;40174;52.364;6.452;2023-10-31T02:47:48;99339.41;;;9.58;100.00
54262;BME280;40174;52.364;6.452;2023-10-31T02:50:14;99346.78;;;9.55;100.00
54262;BME280;40174;52.364;6.452;2023-10-31T02:52:41;99346.78;;;9.55;100.00
54262;BME280;40174;52.364;6.452;2023-10-31T02:55:08;99348.59;;;9.54;100.00
54262;BME280;40174;52.364;6.452;2023-10-31T02:57:37;99342.03;;;9.58;100.00
54262;BME280;40174;52.364;6.452;2023-10-31T03:00:06;99353.63;;;9.66;100.00
54262;BME280;40174;52.364;6.452;2023-10-31T03:02:33;99357.28;;;9.65;100.00
54262;BME280;40174;52.364;6.452;2023-10-31T03:05:00;99358.19;;;9.55;100.00
54262;BME280;40174;52.364;6.452;2023-10-31T03:07:27;99355.38;;;9.57;100.00
54262;BME280;40174;52.364;6.452;2023-10-31T03:09:54;99364.59;;;9.53;100.00
54262;BME280;40174;52.364;6.452;2023-10-31T03:12:20;99368.88;;;9.54;100.00
54262;BME280;40174;52.364;6.452;2023-10-31T03:14:48;99370.69;;;9.53;100.00
54262;BME280;40174;52.364;6.452;2023-10-31T03:17:15;99369.03;;;9.52;100.00
54262;BME280;40174;52.364;6.452;2023-10-31T03:19:41;99364.22;;;9.48;100.00
54262;BME280;40174;52.364;6.452;2023-10-31T03:22:08;99372.81;;;9.50;100.00
54262;BME280;40174;52.364;6.452;2023-10-31T03:24:35;99377.09;;;9.51;100.00
54262;BME280;40174;52.364;6.452;2023-10-31T03:27:02;99381.72;;;9.49;100.00
54262;BME280;40174;52.364;6.452;2023-10-31T03:29:29;99383.22;;;9.51;100.00
54262;BME280;40174;52.364;6.452;2023-10-31T03:31:57;99390.44;;;9.49;100.00
54262;BME280;40174;52.364;6.452;2023-10-31T03:34:24;99390.75;;;9.46;100.00
54262;BME280;40174;52.364;6.452;2023-10-31T03:36:51;99388.41;;;9.43;100.00
54262;BME280;40174;52.364;6.452;2023-10-31T03:39:18;99399.78;;;9.44;100.00
54262;BME280;40174;52.364;6.452;2023-10-31T03:41:45;99387.94;;;9.48;100.00
54262;BME280;40174;52.364;6.452;2023-10-31T03:44:12;99397.00;;;9.45;100.00
54262;BME280;40174;52.364;6.452;2023-10-31T03:46:38;99397.81;;;9.46;100.00
54262;BME280;40174;52.364;6.452;2023-10-31T03:49:06;99401.75;;;9.42;100.00
54262;BME280;40174;52.364;6.452;2023-10-31T03:51:34;99403.41;;;9.43;100.00
54262;BME280;40174;52.364;6.452;2023-10-31T03:54:00;99405.03;;;9.44;100.00
54262;BME280;40174;52.364;6.452;2023-10-31T03:56:27;99404.53;;;9.40;100.00
54262;BME280;40174;52.364;6.452;2023-10-31T03:58:53;99413.34;;;9.49;100.00
54262;BME280;40174;52.364;6.452;2023-10-31T04:01:20;99424.88;;;9.48;100.00
54262;BME280;40174;52.364;6.452;2023-10-31T04:03:47;99422.84;;;9.42;100.00
54262;BME280;40174;52.364;6.452;2023-10-31T04:06:15;99416.72;;;9.41;100.00
54262;BME280;40174;52.364;6.452;2023-10-31T04:08:43;99429.22;;;9.39;100.00
54262;BME280;40174;52.364;6.452;2023-10-31T04:11:10;99428.41;;;9.39;100.00
54262;BME280;40174;52.364;6.452;2023-10-31T04:13:36;99440.47;;;9.41;100.00
54262;BME280;40174;52.364;6.452;2023-10-31T04:16:03;99426.66;;;9.29;100.00
54262;BME280;40174;52.364;6.452;2023-10-31T04:18:30;99424.84;;;9.30;100.00
54262;BME280;40174;52.364;6.452;2023-10-31T04:20:57;99430.28;;;9.28;100.00
54262;BME280;40174;52.364;6.452;2023-10-31T04:23:25;99435.25;;;9.31;100.00
54262;BME280;40174;52.364;6.452;2023-10-31T04:25:51;99428.03;;;9.33;100.00
54262;BME280;40174;52.364;6.452;2023-10-31T04:28:18;99440.22;;;9.34;100.00
54262;BME280;40174;52.364;6.452;2023-10-31T04:30:45;99435.94;;;9.33;100.00
54262;BME280;40174;52.364;6.452;2023-10-31T04:33:11;99443.03;;;9.33;100.00
54262;BME280;40174;52.364;6.452;2023-10-31T04:35:38;99435.13;;;9.33;100.00
54262;BME280;40174;52.364;6.452;2023-10-31T04:38:05;99450.09;;;9.32;100.00
54262;BME280;40174;52.364;6.452;2023-10-31T04:40:33;99444.44;;;9.27;100.00
54262;BME280;40174;52.364;6.452;2023-10-31T04:43:00;99449.03;;;9.25;100.00
54262;BME280;40174;52.364;6.452;2023-10-31T04:45:26;99449.56;;;9.29;100.00
54262;BME280;40174;52.364;6.452;2023-10-31T04:47:53;99451.53;;;9.27;100.00
54262;BME280;40174;52.364;6.452;2023-10-31T04:50:20;99456.13;;;9.25;100.00
54262;BME280;40174;52.364;6.452;2023-10-31T04:52:46;99459.75;;;9.24;100.00
54262;BME280;40174;52.364;6.452;2023-10-31T04:55:13;99469.00;;;9.28;100.00
54262;BME280;40174;52.364;6.452;2023-10-31T04:57:41;99469.44;;;9.23;100.00
54262;BME280;40174;52.364;6.452;2023-10-31T05:00:09;99466.53;;;9.26;100.00
54262;BME280;40174;52.364;6.452;2023-10-31T05:02:36;99482.19;;;9.28;100.00
54262;BME280;40174;52.364;6.452;2023-10-31T05:05:03;99475.13;;;9.28;100.00
54262;BME280;40174;52.364;6.452;2023-10-31T05:07:30;99475.41;;;9.25;100.00
54262;BME280;40174;52.364;6.452;2023-10-31T05:09:58;99481.34;;;9.27;100.00
54262;BME280;40174;52.364;6.452;2023-10-31T05:12:24;99486.25;;;9.22;100.00
54262;BME280;40174;52.364;6.452;2023-10-31T05:14:52;99488.75;;;9.24;100.00
54262;BME280;40174;52.364;6.452;2023-10-31T05:17:19;99494.16;;;9.22;100.00
54262;BME280;40174;52.364;6.452;2023-10-31T05:19:46;99498.44;;;9.23;100.00
54262;BME280;40174;52.364;6.452;2023-10-31T05:22:12;99494.16;;;9.22;100.00
54262;BME280;40174;52.364;6.452;2023-10-31T05:24:39;99500.25;;;9.23;100.00
54262;BME280;40174;52.364;6.452;2023-10-31T05:27:05;99495.28;;;9.20;100.00
54262;BME280;40174;52.364;6.452;2023-10-31T05:29:34;99502.06;;;9.22;100.00
54262;BME280;40174;52.364;6.452;2023-10-31T05:32:03;99501.94;;;9.24;100.00
54262;BME280;40174;52.364;6.452;2023-10-31T05:34:29;99503.94;;;9.30;100.00
54262;BME280;40174;52.364;6.452;2023-10-31T05:36:56;99506.16;;;9.34;100.00
54262;BME280;40174;52.364;6.452;2023-10-31T05:39:23;99510.22;;;9.29;100.00
54262;BME280;40174;52.364;6.452;2023-10-31T05:41:49;99513.28;;;9.24;100.00
54262;BME280;40174;52.364;6.452;2023-10-31T05:44:16;99512.63;;;9.22;100.00
54262;BME280;40174;52.364;6.452;2023-10-31T05:46:43;99517.19;;;9.20;100.00
54262;BME280;40174;52.364;6.452;2023-10-31T05:49:11;99515.00;;;9.15;100.00
54262;BME280;40174;52.364;6.452;2023-10-31T05:51:37;99521.66;;;9.20;100.00
54262;BME280;40174;52.364;6.452;2023-10-31T05:54:06;99516.13;;;9.13;100.00
54262;BME280;40174;52.364;6.452;2023-10-31T05:56:33;99522.91;;;9.15;100.00
54262;BME280;40174;52.364;6.452;2023-10-31T05:59:00;99526.22;;;9.18;100.00
54262;BME280;40174;52.364;6.452;2023-10-31T06:01:26;99525.41;;;9.17;100.00
54262;BME280;40174;52.364;6.452;2023-10-31T06:03:54;99529.81;;;9.16;100.00
54262;BME280;40174;52.364;6.452;2023-10-31T06:06:22;99535.41;;;9.13;100.00
54262;BME280;40174;52.364;6.452;2023-10-31T06:08:48;99546.38;;;9.09;100.00
54262;BME280;40174;52.364;6.452;2023-10-31T06:11:15;99556.94;;;9.09;100.00
54262;BME280;40174;52.364;6.452;2023-10-31T06:13:42;99553.84;;;9.13;100.00
54262;BME280;40174;52.364;6.452;2023-10-31T06:16:08;99554.53;;;9.15;100.00
54262;BME280;40174;52.364;6.452;2023-10-31T06:18:37;99554.25;;;9.19;100.00
54262;BME280;40174;52.364;6.452;2023-10-31T06:21:04;99562.31;;;9.17;100.00
54262;BME280;40174;52.364;6.452;2023-10-31T06:23:32;99562.44;;;9.15;100.00
54262;BME280;40174;52.364;6.452;2023-10-31T06:25:59;99564.09;;;9.16;100.00
54262;BME280;40174;52.364;6.452;2023-10-31T06:28:26;99569.66;;;9.13;100.00
54262;BME280;40174;52.364;6.452;2023-10-31T06:30:52;99571.47;;;9.13;100.00
54262;BME280;40174;52.364;6.452;2023-10-31T06:33:19;99578.97;;;9.08;100.00
54262;BME280;40174;52.364;6.452;2023-10-31T06:35:46;99574.28;;;9.02;100.00
54262;BME280;40174;52.364;6.452;2023-10-31T06:38:12;99583.84;;;9.03;100.00
54262;BME280;40174;52.364;6.452;2023-10-31T06:40:40;99585.66;;;9.02;100.00
54262;BME280;40174;52.364;6.452;2023-10-31T06:43:07;99589.69;;;9.06;100.00
54262;BME280;40174;52.364;6.452;2023-10-31T06:45:33;99584.41;;;9.06;100.00
54262;BME280;40174;52.364;6.452;2023-10-31T06:48:00;99587.31;;;9.03;100.00
54262;BME280;40174;52.364;6.452;2023-10-31T06:50:27;99588.84;;;9.06;100.00
54262;BME280;40174;52.364;6.452;2023-10-31T06:52:54;99599.09;;;9.09;100.00
54262;BME280;40174;52.364;6.452;2023-10-31T06:55:21;99594.66;;;9.09;100.00
54262;BME280;40174;52.364;6.452;2023-10-31T06:57:49;99602.44;;;9.11;100.00
54262;BME280;40174;52.364;6.452;2023-10-31T07:00:16;99600.31;;;9.14;100.00
54262;BME280;40174;52.364;6.452;2023-10-31T07:02:42;99600.22;;;9.06;100.00
54262;BME280;40174;52.364;6.452;2023-10-31T07:05:09;99606.72;;;9.12;100.00
54262;BME280;40174;52.364;6.452;2023-10-31T07:07:36;99610.03;;;9.14;100.00
54262;BME280;40174;52.364;6.452;2023-10-31T07:10:03;99609.94;;;9.06;100.00
54262;BME280;40174;52.364;6.452;2023-10-31T07:12:30;99611.88;;;9.04;100.00
54262;BME280;40174;52.364;6.452;2023-10-31T07:14:58;99618.66;;;9.06;100.00
54262;BME280;40174;52.364;6.452;2023-10-31T07:17:25;99619.88;;;9.12;100.00
54262;BME280;40174;52.364;6.452;2023-10-31T07:19:51;99622.69;;;9.10;100.00
54262;BME280;40174;52.364;6.452;2023-10-31T07:22:18;99623.34;;;9.12;100.00
54262;BME280;40174;52.364;6.452;2023-10-31T07:24:45;99635.56;;;9.13;100.00
54262;BME280;40174;52.364;6.452;2023-10-31T07:27:11;99641.28;;;9.09;100.00
54262;BME280;40174;52.364;6.452;2023-10-31T07:29:39;99640.97;;;9.12;100.00
54262;BME280;40174;52.364;6.452;2023-10-31T07:32:07;99635.56;;;9.13;100.00
54262;BME280;40174;52.364;6.452;2023-10-31T07:34:33;99635.97;;;9.19;100.00
54262;BME280;40174;52.364;6.452;2023-10-31T07:37:00;99627.22;;;9.18;100.00
54262;BME280;40174;52.364;6.452;2023-10-31T07:39:27;99639.44;;;9.19;100.00
54262;BME280;40174;52.364;6.452;2023-10-31T07:41:53;99637.03;;;9.26;100.00
54262;BME280;40174;52.364;6.452;2023-10-31T07:44:21;99644.31;;;9.24;100.00
54262;BME280;40174;52.364;6.452;2023-10-31T07:46:48;99649.13;;;9.28;100.00
54262;BME280;40174;52.364;6.452;2023-10-31T07:49:16;99647.31;;;9.29;100.00
54262;BME280;40174;52.364;6.452;2023-10-31T07:51:42;99653.84;;;9.25;100.00
54262;BME280;40174;52.364;6.452;2023-10-31T07:54:11;99652.16;;;9.33;100.00
54262;BME280;40174;52.364;6.452;2023-10-31T07:56:37;99662.72;;;9.33;100.00
54262;BME280;40174;52.364;6.452;2023-10-31T07:59:06;99664.78;;;9.40;100.00
54262;BME280;40174;52.364;6.452;2023-10-31T08:01:33;99669.06;;;9.41;100.00
54262;BME280;40174;52.364;6.452;2023-10-31T08:04:00;99671.84;;;9.49;100.00
54262;BME280;40174;52.364;6.452;2023-10-31T08:06:28;99669.00;;;9.60;100.00
54262;BME280;40174;52.364;6.452;2023-10-31T08:08:55;99677.00;;;9.68;100.00
54262;BME280;40174;52.364;6.452;2023-10-31T08:11:22;99681.59;;;9.66;100.00
54262;BME280;40174;52.364;6.452;2023-10-31T08:13:48;99690.88;;;9.70;100.00
54262;BME280;40174;52.364;6.452;2023-10-31T08:16:17;99682.28;;;9.68;100.00
54262;BME280;40174;52.364;6.452;2023-10-31T08:18:44;99686.31;;;9.72;100.00
54262;BME280;40174;52.364;6.452;2023-10-31T08:21:11;99680.88;;;9.74;100.00
54262;BME280;40174;52.364;6.452;2023-10-31T08:23:40;99682.94;;;9.80;100.00
54262;BME280;40174;52.364;6.452;2023-10-31T08:26:09;99682.84;;;9.72;100.00
54262;BME280;40174;52.364;6.452;2023-10-31T08:28:37;99694.22;;;9.72;100.00
54262;BME280;40174;52.364;6.452;2023-10-31T08:31:05;99692.41;;;9.73;100.00
54262;BME280;40174;52.364;6.452;2023-10-31T08:33:31;99698.53;;;9.73;100.00
54262;BME280;40174;52.364;6.452;2023-10-31T08:35:58;99703.13;;;9.71;100.00
54262;BME280;40174;52.364;6.452;2023-10-31T08:38:26;99702.31;;;9.71;100.00
54262;BME280;40174;52.364;6.452;2023-10-31T08:40:55;99700.63;;;9.70;100.00
54262;BME280;40174;52.364;6.452;2023-10-31T08:43:22;99709.22;;;9.72;100.00
54262;BME280;40174;52.364;6.452;2023-10-31T08:45:48;99713.50;;;9.73;100.00
54262;BME280;40174;52.364;6.452;2023-10-31T08:48:15;99714.75;;;9.78;100.00
54262;BME280;40174;52.364;6.452;2023-10-31T08:50:42;99720.16;;;9.77;100.00
54262;BME280;40174;52.364;6.452;2023-10-31T08:53:09;99722.25;;;9.83;100.00
54262;BME280;40174;52.364;6.452;2023-10-31T08:55:36;99719.28;;;9.86;100.00
54262;BME280;40174;52.364;6.452;2023-10-31T08:58:04;99729.41;;;9.91;100.00
54262;BME280;40174;52.364;6.452;2023-10-31T09:00:30;99725.00;;;9.91;100.00
54262;BME280;40174;52.364;6.452;2023-10-31T09:02:57;99729.28;;;9.92;100.00
54262;BME280;40174;52.364;6.452;2023-10-31T09:05:24;99724.13;;;10.01;100.00
54262;BME280;40174;52.364;6.452;2023-10-31T09:07:51;99728.06;;;10.14;100.00
54262;BME280;40174;52.364;6.452;2023-10-31T09:10:18;99736.81;;;10.15;100.00
54262;BME280;40174;52.364;6.452;2023-10-31T09:12:44;99733.72;;;10.19;100.00
54262;BME280;40174;52.364;6.452;2023-10-31T09:15:13;99740.69;;;10.20;100.00
54262;BME280;40174;52.364;6.452;2023-10-31T09:17:39;99739.25;;;10.26;100.00
54262;BME280;40174;52.364;6.452;2023-10-31T09:20:07;99748.56;;;10.30;100.00
54262;BME280;40174;52.364;6.452;2023-10-31T09:22:34;99754.34;;;10.44;100.00
54262;BME280;40174;52.364;6.452;2023-10-31T09:25:01;99759.03;;;10.50;100.00
54262;BME280;40174;52.364;6.452;2023-10-31T09:27:28;99766.06;;;10.59;100.00
54262;BME280;40174;52.364;6.452;2023-10-31T09:29:55;99766.59;;;10.63;100.00
54262;BME280;40174;52.364;6.452;2023-10-31T09:32:23;99774.97;;;10.76;100.00
54262;BME280;40174;52.364;6.452;2023-10-31T09:34:49;99788.59;;;10.81;100.00
54262;BME280;40174;52.364;6.452;2023-10-31T09:37:16;99780.59;;;10.91;100.00
54262;BME280;40174;52.364;6.452;2023-10-31T09:39:42;99791.25;;;10.99;100.00
54262;BME280;40174;52.364;6.452;2023-10-31T09:42:09;99801.38;;;11.03;100.00
54262;BME280;40174;52.364;6.452;2023-10-31T09:44:36;99796.44;;;11.09;100.00
54262;BME280;40174;52.364;6.452;2023-10-31T09:47:03;99805.75;;;11.13;100.00
54262;BME280;40174;52.364;6.452;2023-10-31T09:49:32;99808.91;;;11.16;100.00
54262;BME280;40174;52.364;6.452;2023-10-31T09:52:00;99805.59;;;11.14;100.00
54262;BME280;40174;52.364;6.452;2023-10-31T09:54:29;99814.19;;;11.16;100.00
54262;BME280;40174;52.364;6.452;2023-10-31T09:56:56;99820.63;;;11.32;100.00
54262;BME280;40174;52.364;6.452;2023-10-31T09:59:23;99822.81;;;11.36;100.00
54262;BME280;40174;52.364;6.452;2023-10-31T10:01:49;99824.13;;;11.32;100.00
54262;BME280;40174;52.364;6.452;2023-10-31T10:04:16;99828.41;;;11.33;100.00
54262;BME280;40174;52.364;6.452;2023-10-31T10:06:58;99823.34;;;11.40;100.00
54262;BME280;40174;52.364;6.452;2023-10-31T10:09:25;99830.22;;;11.51;100.00
54262;BME280;40174;52.364;6.452;2023-10-31T10:11:53;99830.72;;;11.54;100.00
54262;BME280;40174;52.364;6.452;2023-10-31T10:14:22;99838.50;;;11.56;100.00
54262;BME280;40174;52.364;6.452;2023-10-31T10:16:49;99841.28;;;11.72;100.00
54262;BME280;40174;52.364;6.452;2023-10-31T10:19:17;99836.72;;;11.82;100.00
54262;BME280;40174;52.364;6.452;2023-10-31T10:21:49;99846.41;;;11.92;100.00
54262;BME280;40174;52.364;6.452;2023-10-31T10:24:18;99845.34;;;12.11;100.00
54262;BME280;40174;52.364;6.452;2023-10-31T10:26:45;99852.25;;;12.30;100.00
54262;BME280;40174;52.364;6.452;2023-10-31T10:29:12;99853.44;;;12.35;100.00
54262;BME280;40174;52.364;6.452;2023-10-31T10:31:39;99854.19;;;12.54;100.00
54262;BME280;40174;52.364;6.452;2023-10-31T10:34:07;99858.00;;;12.59;100.00
54262;BME280;40174;52.364;6.452;2023-10-31T10:36:34;99863.13;;;12.53;100.00
54262;BME280;40174;52.364;6.452;2023-10-31T10:39:01;99864.66;;;12.63;100.00
54262;BME280;40174;52.364;6.452;2023-10-31T10:41:34;99869.34;;;12.69;100.00
54262;BME280;40174;52.364;6.452;2023-10-31T10:44:04;99868.50;;;12.69;100.00
54262;BME280;40174;52.364;6.452;2023-10-31T10:46:33;99875.88;;;13.00;100.00
54262;BME280;40174;52.364;6.452;2023-10-31T10:49:04;99880.91;;;13.27;100.00
54262;BME280;40174;52.364;6.452;2023-10-31T10:51:40;99886.47;;;13.59;100.00
54262;BME280;40174;52.364;6.452;2023-10-31T10:54:11;99888.44;;;13.48;100.00
54262;BME280;40174;52.364;6.452;2023-10-31T10:56:46;99878.94;;;13.29;100.00
54262;BME280;40174;52.364;6.452;2023-10-31T10:59:28;99892.81;;;13.15;100.00
54262;BME280;40174;52.364;6.452;2023-10-31T11:01:59;99886.47;;;13.00;100.00
54262;BME280;40174;52.364;6.452;2023-10-31T11:04:27;99889.25;;;12.82;100.00
54262;BME280;40174;52.364;6.452;2023-10-31T11:06:54;99888.56;;;12.72;100.00
54262;BME280;40174;52.364;6.452;2023-10-31T11:09:23;99891.22;;;12.72;100.00
54262;BME280;40174;52.364;6.452;2023-10-31T11:11:52;99890.53;;;12.69;100.00
54262;BME280;40174;52.364;6.452;2023-10-31T11:14:19;99889.88;;;12.67;100.00
54262;BME280;40174;52.364;6.452;2023-10-31T11:16:49;99889.03;;;12.67;100.00
54262;BME280;40174;52.364;6.452;2023-10-31T11:19:18;99890.97;;;12.57;100.00
54262;BME280;40174;52.364;6.452;2023-10-31T11:21:55;99897.03;;;12.41;100.00
54262;BME280;40174;52.364;6.452;2023-10-31T11:24:22;99908.94;;;12.37;100.00
54262;BME280;40174;52.364;6.452;2023-10-31T11:26:58;99903.63;;;12.37;100.00
54262;BME280;40174;52.364;6.452;2023-10-31T11:29:25;99898.25;;;12.28;100.00
54262;BME280;40174;52.364;6.452;2023-10-31T11:31:54;99912.19;;;12.31;100.00
54262;BME280;40174;52.364;6.452;2023-10-31T11:34:21;99907.75;;;12.31;100.00
54262;BME280;40174;52.364;6.452;2023-10-31T11:36:50;99908.50;;;12.23;100.00
54262;BME280;40174;52.364;6.452;2023-10-31T11:39:18;99911.69;;;12.27;100.00
54262;BME280;40174;52.364;6.452;2023-10-31T11:41:48;99915.53;;;12.33;100.00
54262;BME280;40174;52.364;6.452;2023-10-31T11:44:17;99918.13;;;12.24;100.00
54262;BME280;40174;52.364;6.452;2023-10-31T11:46:44;99920.94;;;12.23;100.00
54262;BME280;40174;52.364;6.452;2023-10-31T11:49:14;99925.41;;;12.22;100.00
54262;BME280;40174;52.364;6.452;2023-10-31T11:51:41;99928.88;;;12.23;100.00
54262;BME280;40174;52.364;6.452;2023-10-31T11:54:13;99930.91;;;12.29;100.00
54262;BME280;40174;52.364;6.452;2023-10-31T11:56:39;99934.44;;;12.38;100.00
54262;BME280;40174;52.364;6.452;2023-10-31T11:59:06;99932.63;;;12.38;100.00
54262;BME280;40174;52.364;6.452;2023-10-31T12:01:44;99938.97;;;12.45;100.00
54262;BME280;40174;52.364;6.452;2023-10-31T12:04:21;99928.47;;;12.36;100.00
54262;BME280;40174;52.364;6.452;2023-10-31T12:06:56;99935.47;;;12.45;100.00
54262;BME280;40174;52.364;6.452;2023-10-31T12:09:23;99933.44;;;12.65;100.00
54262;BME280;40174;52.364;6.452;2023-10-31T12:11:50;99935.00;;;12.84;100.00
54262;BME280;40174;52.364;6.452;2023-10-31T12:14:18;99940.91;;;13.20;100.00
54262;BME280;40174;52.364;6.452;2023-10-31T12:16:46;99942.69;;;13.54;100.00
54262;BME280;40174;52.364;6.452;2023-10-31T12:19:13;99951.34;;;13.64;100.00
54262;BME280;40174;52.364;6.452;2023-10-31T12:21:42;99943.88;;;13.76;100.00
54262;BME280;40174;52.364;6.452;2023-10-31T12:24:10;99948.66;;;13.64;100.00
54262;BME280;40174;52.364;6.452;2023-10-31T12:26:38;99953.78;;;13.41;100.00
54262;BME280;40174;52.364;6.452;2023-10-31T12:29:09;99954.53;;;13.17;100.00
54262;BME280;40174;52.364;6.452;2023-10-31T12:31:42;99955.81;;;13.05;100.00
54262;BME280;40174;52.364;6.452;2023-10-31T12:34:10;99953.94;;;12.97;100.00
54262;BME280;40174;52.364;6.452;2023-10-31T12:36:37;99946.66;;;12.99;100.00
54262;BME280;40174;52.364;6.452;2023-10-31T12:39:07;99953.38;;;13.20;100.00
54262;BME280;40174;52.364;6.452;2023-10-31T12:41:35;99948.72;;;13.22;100.00
54262;BME280;40174;52.364;6.452;2023-10-31T12:44:02;99949.16;;;13.43;100.00
54262;BME280;40174;52.364;6.452;2023-10-31T12:46:31;99946.22;;;13.79;100.00
54262;BME280;40174;52.364;6.452;2023-10-31T12:48:58;99947.69;;;13.90;100.00
54262;BME280;40174;52.364;6.452;2023-10-31T12:51:26;99951.34;;;13.89;100.00
54262;BME280;40174;52.364;6.452;2023-10-31T12:53:53;99950.50;;;13.97;100.00
54262;BME280;40174;52.364;6.452;2023-10-31T12:56:37;99960.31;;;13.88;100.00